createdAt,value
2019-03-06T00:00:24.060Z,2.25
2019-03-06T00:05:24.083Z,2.31
2019-03-06T00:10:24.041Z,2.31
2019-03-06T00:15:23.998Z,2.38
2019-03-06T00:20:24.053Z,2.44
2019-03-06T00:25:24.050Z,2.63
2019-03-06T00:30:24.053Z,2.63
2019-03-06T00:35:24.020Z,2.5
2019-03-06T00:40:24.007Z,2.5
2019-03-06T00:45:24.049Z,2.38
2019-03-06T00:50:24.049Z,2.31
2019-03-06T00:55:24.062Z,2.25
2019-03-06T01:00:24.027Z,2.19
2019-03-06T01:05:24.081Z,2.19
2019-03-06T01:10:23.997Z,2.19
2019-03-06T01:15:24.057Z,2.19
2019-03-06T01:20:24.046Z,2.13
2019-03-06T01:25:24.033Z,2.06
2019-03-06T01:30:24.095Z,2.06
2019-03-06T01:35:24.053Z,2.06
2019-03-06T01:40:24.005Z,2
2019-03-06T01:45:24.001Z,1.94
2019-03-06T01:50:24.045Z,1.94
2019-03-06T01:55:24.086Z,1.94
2019-03-06T02:00:24.038Z,1.88
2019-03-06T02:05:24.079Z,1.81
2019-03-06T02:10:24.084Z,1.81
2019-03-06T02:15:24.038Z,1.81
2019-03-06T02:20:24.074Z,1.81
2019-03-06T02:25:24.039Z,1.81
2019-03-06T02:30:24.049Z,1.81
2019-03-06T02:35:24.056Z,1.75
2019-03-06T02:40:23.996Z,1.75
2019-03-06T02:45:24.081Z,1.75
2019-03-06T02:50:24.056Z,1.69
2019-03-06T02:55:24.097Z,1.63
2019-03-06T03:00:23.999Z,1.56
2019-03-06T03:05:24.055Z,1.44
2019-03-06T03:10:24.043Z,1.38
2019-03-06T03:15:24.034Z,1.38
2019-03-06T03:20:24.053Z,1.31
2019-03-06T03:25:24.116Z,1.31
2019-03-06T03:30:24.097Z,1.31
2019-03-06T03:35:24.057Z,1.31
2019-03-06T03:40:24.055Z,1.25
2019-03-06T03:45:24.055Z,1.19
2019-03-06T03:50:24.098Z,1.13
2019-03-06T03:55:24.057Z,1.13
2019-03-06T04:00:24.057Z,1.19
2019-03-06T04:05:24.071Z,1.31
2019-03-06T04:10:24.011Z,1.31
2019-03-06T04:15:24.041Z,1.25
2019-03-06T04:20:24.013Z,1.25
2019-03-06T04:25:24.074Z,1.13
2019-03-06T04:30:24.013Z,1.06
2019-03-06T04:35:24.048Z,1
2019-03-06T04:40:24.048Z,0.94
2019-03-06T04:45:24.074Z,0.88
2019-03-06T04:50:24.048Z,0.88
2019-03-06T04:55:24.049Z,0.88
2019-03-06T05:00:24.142Z,0.88
2019-03-06T05:05:24.051Z,0.94
2019-03-06T05:10:24.087Z,0.94
2019-03-06T05:15:24.108Z,1
2019-03-06T05:20:24.045Z,1
2019-03-06T05:25:24.054Z,1
2019-03-06T05:30:24.055Z,1
2019-03-06T05:35:24.055Z,0.94
2019-03-06T05:40:24.024Z,0.94
2019-03-06T05:45:24.048Z,0.94
2019-03-06T05:50:24.061Z,0.94
2019-03-06T05:55:24.100Z,0.94
2019-03-06T06:00:24.068Z,1.06
2019-03-06T06:05:24.052Z,1.19
2019-03-06T06:10:24.060Z,1.25
2019-03-06T06:15:24.015Z,1.38
2019-03-06T06:20:24.071Z,1.44
2019-03-06T06:25:24.060Z,1.69
2019-03-06T06:30:24.059Z,1.81
2019-03-06T06:35:24.055Z,1.94
2019-03-06T06:40:24.063Z,2
2019-03-06T06:45:24.100Z,2.13
2019-03-06T06:50:24.074Z,2.19
2019-03-06T06:55:24.067Z,2.31
2019-03-06T07:00:24.065Z,2.44
2019-03-06T07:05:24.051Z,2.88
2019-03-06T07:10:24.112Z,3.31
2019-03-06T07:15:24.055Z,4.25
2019-03-06T07:20:24.096Z,5.38
2019-03-06T07:25:24.111Z,6.69
2019-03-06T07:30:24.052Z,6.94
2019-03-06T07:35:24.089Z,6.94
2019-03-06T07:40:24.056Z,6.88
2019-03-06T07:45:24.065Z,6.88
2019-03-06T07:50:24.018Z,6.94
2019-03-06T07:55:24.066Z,7.06
2019-03-06T08:00:24.063Z,7.19
2019-03-06T08:05:24.019Z,7.69
2019-03-06T08:10:24.071Z,7.94
2019-03-06T08:15:24.074Z,7.69
2019-03-06T08:20:24.059Z,7.69
2019-03-06T08:25:24.070Z,7.69
2019-03-06T08:30:24.066Z,7.88
2019-03-06T08:35:24.106Z,8.13
2019-03-06T08:40:24.051Z,8.25
2019-03-06T08:45:24.076Z,8.88
2019-03-06T08:50:24.101Z,9.06
2019-03-06T08:55:24.073Z,9
2019-03-06T09:00:24.069Z,8.75
2019-03-06T09:05:24.081Z,9.19
2019-03-06T09:10:24.063Z,9.38
2019-03-06T09:15:24.029Z,9.31
2019-03-06T09:20:24.101Z,9.69
2019-03-06T09:25:24.068Z,10.38
2019-03-06T09:30:24.083Z,10.56
2019-03-06T09:35:24.020Z,10.75
2019-03-06T09:40:24.068Z,10.69
2019-03-06T09:45:24.061Z,10.38
2019-03-06T09:50:24.068Z,10.69
2019-03-06T09:55:24.075Z,10.88
2019-03-06T10:00:24.078Z,11.19
2019-03-06T10:05:24.068Z,11.88
2019-03-06T10:10:24.073Z,11.75
2019-03-06T10:15:24.035Z,11.69
2019-03-06T10:20:25.230Z,11.63
2019-03-06T10:25:29.938Z,11.94
2019-03-06T10:30:24.116Z,12.44
2019-03-06T10:35:24.036Z,12.81
2019-03-06T10:40:24.075Z,13.13
2019-03-06T10:45:24.110Z,12.5
2019-03-06T10:50:26.697Z,12.56
2019-03-06T10:55:24.076Z,12.94
2019-03-06T11:00:24.076Z,12.94
2019-03-06T11:05:24.084Z,12.5
2019-03-06T11:10:24.998Z,12.38
2019-03-06T11:15:24.116Z,12.44
2019-03-06T11:20:24.075Z,12.44
2019-03-06T11:25:24.090Z,12.38
2019-03-06T11:30:24.047Z,12.31
2019-03-06T11:35:24.145Z,12.38
2019-03-06T11:40:24.081Z,12.69
2019-03-06T11:45:24.081Z,12.5
2019-03-06T11:50:24.092Z,12.31
2019-03-06T11:55:24.045Z,12.25
2019-03-06T12:00:24.035Z,12.31
2019-03-06T12:05:24.139Z,12.13
2019-03-06T12:10:24.099Z,12.19
2019-03-06T12:15:24.076Z,12.31
2019-03-06T12:20:24.068Z,12.38
2019-03-06T12:25:24.081Z,12
2019-03-06T12:30:24.097Z,11.88
2019-03-06T12:35:24.085Z,12.13
2019-03-06T12:40:24.068Z,12.44
2019-03-06T12:45:24.069Z,12.44
2019-03-06T12:50:24.101Z,12.56
2019-03-06T12:55:24.050Z,12.56
2019-03-06T13:00:24.089Z,12.44
2019-03-06T13:05:24.121Z,12.25
2019-03-06T13:10:24.106Z,12.25
2019-03-06T13:15:24.045Z,12.31
2019-03-06T13:20:24.183Z,12.44
2019-03-06T13:25:24.107Z,12.88
2019-03-06T13:30:24.075Z,12.94
2019-03-06T13:35:24.128Z,13.06
2019-03-06T13:40:24.089Z,13.19
2019-03-06T13:45:24.150Z,13.25
2019-03-06T13:50:24.615Z,13.06
2019-03-06T13:55:24.106Z,13
2019-03-06T14:00:24.086Z,13.13
2019-03-06T14:05:24.086Z,13.25
2019-03-06T14:10:24.084Z,13.19
2019-03-06T14:15:24.158Z,13.13
2019-03-06T14:20:24.098Z,13.13
2019-03-06T14:25:24.098Z,13
2019-03-06T14:30:24.120Z,13
2019-03-06T14:35:24.093Z,13
2019-03-06T14:40:24.100Z,13.06
2019-03-06T14:45:24.094Z,13.19
2019-03-06T14:50:24.096Z,13.06
2019-03-06T14:55:24.090Z,12.94
2019-03-06T15:00:24.089Z,12.88
2019-03-06T15:05:24.048Z,12.81
2019-03-06T15:10:24.150Z,12.81
2019-03-06T15:15:24.096Z,12.81
2019-03-06T15:20:24.108Z,12.75
2019-03-06T15:25:24.102Z,12.69
2019-03-06T15:30:24.148Z,12.69
2019-03-06T15:35:24.108Z,12.69
2019-03-06T15:40:24.119Z,12.69
2019-03-06T15:45:24.159Z,12.63
2019-03-06T15:50:24.213Z,12.56
2019-03-06T15:55:24.096Z,12.5
2019-03-06T16:00:24.114Z,12.38
2019-03-06T16:05:24.104Z,12.25
2019-03-06T16:10:24.103Z,12.13
2019-03-06T16:15:24.110Z,12.06
2019-03-06T16:20:24.099Z,12.06
2019-03-06T16:25:24.117Z,11.88
2019-03-06T16:30:24.125Z,11.81
2019-03-06T16:35:24.101Z,11.69
2019-03-06T16:40:24.063Z,11.63
2019-03-06T16:45:24.130Z,11.44
2019-03-06T16:50:24.058Z,11.38
2019-03-06T16:55:24.158Z,11.31
2019-03-06T17:00:24.113Z,11.25
2019-03-06T17:05:24.117Z,11.13
2019-03-06T17:10:24.104Z,11.06
2019-03-06T17:15:24.100Z,11.06
2019-03-06T17:20:24.108Z,11.06
2019-03-06T17:25:25.918Z,10.94
2019-03-06T17:30:24.120Z,10.94
2019-03-06T17:35:24.115Z,10.88
2019-03-06T17:40:24.108Z,10.81
2019-03-06T17:45:24.122Z,10.75
2019-03-06T17:50:24.148Z,10.69
2019-03-06T17:55:24.098Z,10.69
2019-03-06T18:00:24.106Z,10.75
2019-03-06T18:05:24.124Z,10.69
2019-03-06T18:10:24.113Z,10.63
2019-03-06T18:15:24.177Z,10.56
2019-03-06T18:20:24.114Z,10.5
2019-03-06T18:25:24.073Z,10.56
2019-03-06T18:30:24.174Z,10.63
2019-03-06T18:35:24.083Z,10.63
2019-03-06T18:40:24.106Z,10.56
2019-03-06T18:45:24.113Z,10.44
2019-03-06T18:50:24.107Z,10.38
2019-03-06T18:55:24.155Z,10.31
2019-03-06T19:00:24.102Z,10.19
2019-03-06T19:05:24.074Z,10.19
2019-03-06T19:10:24.117Z,10.13
2019-03-06T19:15:24.119Z,10.13
2019-03-06T19:20:24.098Z,10.06
2019-03-06T19:25:24.154Z,9.94
2019-03-06T19:30:24.136Z,9.88
2019-03-06T19:35:24.133Z,9.81
2019-03-06T19:40:24.130Z,9.81
2019-03-06T19:45:24.068Z,9.88
2019-03-06T19:50:25.543Z,9.88
2019-03-06T19:55:24.117Z,9.88
2019-03-06T20:00:24.111Z,9.81
2019-03-06T20:05:24.129Z,9.63
2019-03-06T20:10:24.114Z,9.56
2019-03-06T20:15:24.103Z,9.5
2019-03-06T20:20:24.129Z,9.44
2019-03-06T20:25:24.118Z,9.44
2019-03-06T20:30:24.152Z,9.5
2019-03-06T20:35:24.115Z,9.5
2019-03-06T20:40:24.126Z,9.5
2019-03-06T20:45:24.115Z,9.5
2019-03-06T20:50:24.126Z,9.5
2019-03-06T20:55:24.111Z,9.56
2019-03-06T21:00:24.132Z,9.63
2019-03-06T21:05:24.120Z,9.81
2019-03-06T21:10:24.118Z,9.94
2019-03-06T21:15:24.127Z,10
2019-03-06T21:20:24.121Z,10
2019-03-06T21:25:24.118Z,10
2019-03-06T21:30:24.187Z,10.06
2019-03-06T21:35:24.123Z,10.06
2019-03-06T21:40:24.127Z,10.06
2019-03-06T21:45:24.119Z,10
2019-03-06T21:50:24.162Z,10
2019-03-06T21:55:24.128Z,10
2019-03-06T22:00:24.136Z,10.06
2019-03-06T22:05:24.140Z,10.31
2019-03-06T22:10:24.086Z,10.38
2019-03-06T22:15:24.153Z,10.44
2019-03-06T22:20:24.131Z,10.44
2019-03-06T22:25:24.130Z,10.56
2019-03-06T22:30:24.083Z,10.69
2019-03-06T22:35:24.133Z,10.69
2019-03-06T22:40:24.131Z,10.69
2019-03-06T22:45:24.125Z,10.63
2019-03-06T22:50:24.182Z,10.63
2019-03-06T22:55:24.115Z,10.63
2019-03-06T23:00:24.119Z,10.63
2019-03-06T23:05:24.132Z,10.56
2019-03-06T23:10:24.126Z,10.5
2019-03-06T23:15:24.129Z,10.5
2019-03-06T23:20:24.124Z,10.5
2019-03-06T23:25:24.138Z,10.44
2019-03-06T23:30:24.130Z,10.44
2019-03-06T23:35:24.132Z,10.38
2019-03-06T23:40:24.133Z,10.31
2019-03-06T23:45:24.133Z,10.25
2019-03-06T23:50:24.135Z,10.19
2019-03-06T23:55:24.103Z,10.19
